Time;durP1;ratioP1;P1;durP2;ratioP2;P2;SDS_P1;SDS_P2;PMS_P1;PMS_P2;Temp;Humidity;BMP_temperature;BMP_pressure;BME280_temperature;BME280_humidity;BME280_pressure;Samples;Min_cycle;Max_cycle;Signal;HPM_P1;HPM_P2
2022/01/10 00:00:40;;;;;;;30.55;22.77;;;;;;;;;;143741;606;46023;-64
2022/01/10 00:03:08;;;;;;;31.17;22.30;;;;;;;;;;143741;653;46020;-63
2022/01/10 00:05:35;;;;;;;40.53;24.95;;;;;;;;;;143739;587;46022;-64
2022/01/10 00:08:04;;;;;;;35.47;24.73;;;;;;;;;;143738;564;46019;-64
2022/01/10 00:10:32;;;;;;;45.08;28.95;;;;;;;;;;143741;573;46022;-63
2022/01/10 00:12:59;;;;;;;43.72;29.35;;;;;;;;;;143740;572;46020;-64
2022/01/10 00:15:26;;;;;;;42.92;30.67;;;;;;;;;;143739;632;46023;-64
2022/01/10 00:17:54;;;;;;;40.17;27.55;;;;;;;;;;143739;578;46018;-63
2022/01/10 00:20:23;;;;;;;28.50;20.05;;;;;;;;;;143742;569;46022;-64
2022/01/10 00:22:51;;;;;;;29.87;22.90;;;;;;;;;;143736;571;47021;-63
2022/01/10 00:25:20;;;;;;;28.58;19.83;;;;;;;;;;143740;613;46010;-64
2022/01/10 00:27:49;;;;;;;26.35;19.02;;;;;;;;;;143739;571;46018;-63
2022/01/10 00:30:16;;;;;;;28.95;21.42;;;;;;;;;;143744;664;46023;-63
2022/01/10 00:32:45;;;;;;;38.63;25.77;;;;;;;;;;143739;575;46020;-64
2022/01/10 00:35:13;;;;;;;27.10;19.27;;;;;;;;;;143736;589;46022;-64
2022/01/10 00:37:43;;;;;;;32.30;23.70;;;;;;;;;;143739;601;47037;-64
2022/01/10 00:40:15;;;;;;;31.25;21.02;;;;;;;;;;143741;571;46020;-63
2022/01/10 00:42:43;;;;;;;30.77;20.55;;;;;;;;;;143742;563;46022;-64
2022/01/10 00:45:17;;;;;;;37.60;25.58;;;;;;;;;;143737;564;46021;-64
2022/01/10 00:47:46;;;;;;;30.48;21.25;;;;;;;;;;143735;590;46020;-64
2022/01/10 00:50:14;;;;;;;36.63;23.87;;;;;;;;;;143740;571;46020;-64
2022/01/10 00:52:41;;;;;;;29.12;19.90;;;;;;;;;;143738;579;46051;-63
2022/01/10 00:55:08;;;;;;;24.00;16.70;;;;;;;;;;143740;579;46020;-64
2022/01/10 00:57:38;;;;;;;23.38;16.73;;;;;;;;;;143739;652;46020;-63
2022/01/10 01:00:13;;;;;;;30.02;19.50;;;;;;;;;;143739;564;46021;-63
2022/01/10 01:02:40;;;;;;;29.17;20.25;;;;;;;;;;143741;569;46050;-64
2022/01/10 01:05:10;;;;;;;27.17;19.55;;;;;;;;;;143738;617;47010;-63
2022/01/10 01:07:38;;;;;;;28.75;18.98;;;;;;;;;;143741;615;46021;-64
2022/01/10 01:13:11;;;;;;;24.02;18.08;;;;;;;;;;143738;565;46020;-64
2022/01/10 01:15:57;;;;;;;29.25;18.73;;;;;;;;;;143727;577;46918;-64
2022/01/10 01:19:05;;;;;;;28.00;18.60;;;;;;;;;;143731;569;46020;-63
2022/01/10 01:24:08;;;;;;;27.10;19.75;;;;;;;;;;143743;572;46021;-63
2022/01/10 01:26:53;;;;;;;34.92;23.30;;;;;;;;;;143740;602;46010;-63
2022/01/10 01:29:24;;;;;;;36.47;25.17;;;;;;;;;;143735;622;46021;-64
2022/01/10 01:31:54;;;;;;;30.27;20.88;;;;;;;;;;143740;585;46020;-63
2022/01/10 01:34:23;;;;;;;33.63;22.75;;;;;;;;;;143742;648;46022;-63
2022/01/10 01:36:53;;;;;;;33.53;22.33;;;;;;;;;;143739;622;46021;-64
2022/01/10 01:39:23;;;;;;;29.85;21.90;;;;;;;;;;143734;564;46020;-64
2022/01/10 01:42:03;;;;;;;33.00;23.87;;;;;;;;;;143740;588;46020;-63
2022/01/10 01:44:33;;;;;;;34.33;25.27;;;;;;;;;;143741;569;46022;-63
2022/01/10 01:47:00;;;;;;;34.10;24.70;;;;;;;;;;143738;575;46020;-64
2022/01/10 01:49:27;;;;;;;36.72;27.77;;;;;;;;;;143737;563;46020;-64
2022/01/10 01:51:54;;;;;;;38.35;24.95;;;;;;;;;;143741;657;46020;-63
2022/01/10 01:54:24;;;;;;;38.00;26.98;;;;;;;;;;143740;622;46022;-64
2022/01/10 01:56:52;;;;;;;36.90;23.38;;;;;;;;;;143740;612;46020;-63
2022/01/10 01:59:19;;;;;;;33.20;23.85;;;;;;;;;;143739;580;46045;-64
2022/01/10 02:01:46;;;;;;;30.70;21.23;;;;;;;;;;143740;592;46020;-63
2022/01/10 02:04:13;;;;;;;31.75;21.77;;;;;;;;;;143735;662;46043;-63
2022/01/10 02:06:40;;;;;;;26.90;18.37;;;;;;;;;;143740;589;46021;-64
2022/01/10 02:09:07;;;;;;;27.35;18.23;;;;;;;;;;143739;626;46020;-64
2022/01/10 02:11:34;;;;;;;25.67;17.42;;;;;;;;;;143741;587;46020;-63
2022/01/10 02:14:04;;;;;;;26.65;19.73;;;;;;;;;;143737;571;47022;-63
2022/01/10 02:16:40;;;;;;;28.00;19.90;;;;;;;;;;143739;566;47010;-64
2022/01/10 02:19:07;;;;;;;30.85;20.55;;;;;;;;;;143741;580;46022;-63
2022/01/10 02:21:34;;;;;;;33.53;23.83;;;;;;;;;;143740;598;46019;-63
2022/01/10 02:24:01;;;;;;;32.92;22.48;;;;;;;;;;143741;624;46022;-63
2022/01/10 02:26:28;;;;;;;30.30;20.92;;;;;;;;;;143739;565;47010;-64
2022/01/10 02:28:58;;;;;;;30.45;21.92;;;;;;;;;;143733;571;46021;-63
2022/01/10 02:31:28;;;;;;;30.12;20.83;;;;;;;;;;143743;645;46020;-63
2022/01/10 02:33:57;;;;;;;23.33;16.70;;;;;;;;;;143742;600;46022;-63
2022/01/10 02:36:26;;;;;;;31.33;22.15;;;;;;;;;;143737;565;46021;-62
2022/01/10 02:38:56;;;;;;;27.17;20.55;;;;;;;;;;143738;600;46020;-63
2022/01/10 02:41:40;;;;;;;30.27;21.48;;;;;;;;;;143738;588;46020;-64
2022/01/10 02:44:11;;;;;;;33.45;22.05;;;;;;;;;;143738;613;46022;-63
2022/01/10 02:46:40;;;;;;;21.83;15.95;;;;;;;;;;143738;569;46020;-63
2022/01/10 02:49:15;;;;;;;23.70;18.52;;;;;;;;;;143739;611;46020;-63
2022/01/10 02:51:42;;;;;;;21.23;16.33;;;;;;;;;;143737;578;46021;-63
2022/01/10 02:54:10;;;;;;;20.17;15.60;;;;;;;;;;143734;589;46023;-63
2022/01/10 02:56:49;;;;;;;20.73;14.70;;;;;;;;;;143736;611;46010;-63
2022/01/10 02:59:16;;;;;;;20.95;15.95;;;;;;;;;;143737;660;46021;-63
2022/01/10 03:01:43;;;;;;;30.25;18.75;;;;;;;;;;143739;632;46020;-63
2022/01/10 03:04:10;;;;;;;23.38;16.50;;;;;;;;;;143740;571;46022;-63
2022/01/10 03:06:39;;;;;;;25.35;16.58;;;;;;;;;;143735;581;46021;-62
2022/01/10 03:09:06;;;;;;;29.20;20.70;;;;;;;;;;143736;569;46027;-63
2022/01/10 03:11:34;;;;;;;22.13;17.30;;;;;;;;;;143739;617;46020;-63
2022/01/10 03:14:02;;;;;;;29.73;19.20;;;;;;;;;;143739;647;46022;-63
2022/01/10 03:16:30;;;;;;;26.58;18.50;;;;;;;;;;143737;653;46020;-63
2022/01/10 03:18:57;;;;;;;25.62;19.77;;;;;;;;;;143733;620;46020;-63
2022/01/10 03:21:24;;;;;;;26.48;19.12;;;;;;;;;;143736;570;46021;-64
2022/01/10 03:23:52;;;;;;;26.45;17.17;;;;;;;;;;143740;654;46022;-63
2022/01/10 03:26:20;;;;;;;23.25;16.90;;;;;;;;;;143740;578;46020;-63
2022/01/10 03:28:47;;;;;;;25.80;18.37;;;;;;;;;;143739;573;46021;-63
2022/01/10 03:31:14;;;;;;;24.17;17.08;;;;;;;;;;143738;593;46020;-63
2022/01/10 03:33:41;;;;;;;23.17;15.82;;;;;;;;;;143739;571;46037;-63
2022/01/10 03:36:08;;;;;;;28.40;18.00;;;;;;;;;;143739;623;46021;-63
2022/01/10 03:38:35;;;;;;;20.42;14.65;;;;;;;;;;143739;569;46020;-63
2022/01/10 03:41:02;;;;;;;23.20;15.88;;;;;;;;;;143738;566;46020;-63
2022/01/10 03:43:29;;;;;;;25.17;16.48;;;;;;;;;;143734;644;46022;-63
2022/01/10 03:45:57;;;;;;;19.90;15.57;;;;;;;;;;143736;582;46020;-62
2022/01/10 03:48:24;;;;;;;24.52;17.00;;;;;;;;;;143738;569;46034;-63
2022/01/10 03:50:51;;;;;;;23.62;15.82;;;;;;;;;;143739;564;46022;-63
2022/01/10 03:53:18;;;;;;;26.33;17.50;;;;;;;;;;143738;620;47020;-63
2022/01/10 03:55:48;;;;;;;21.17;14.77;;;;;;;;;;143737;626;46022;-62
2022/01/10 03:58:15;;;;;;;18.00;13.90;;;;;;;;;;143740;680;46018;-63
2022/01/10 04:00:42;;;;;;;27.65;19.00;;;;;;;;;;143740;644;46022;-62
2022/01/10 04:03:09;;;;;;;21.50;16.15;;;;;;;;;;143739;625;46020;-63
2022/01/10 04:05:39;;;;;;;22.25;17.30;;;;;;;;;;143738;575;46022;-63
2022/01/10 04:08:06;;;;;;;32.15;22.55;;;;;;;;;;143731;629;46018;-63
2022/01/10 04:10:33;;;;;;;20.65;14.95;;;;;;;;;;143740;575;46022;-64
2022/01/10 04:13:00;;;;;;;22.90;17.58;;;;;;;;;;143736;574;47019;-63
2022/01/10 04:15:27;;;;;;;25.95;20.02;;;;;;;;;;143736;572;46022;-64
2022/01/10 04:17:56;;;;;;;23.42;16.62;;;;;;;;;;143739;588;46017;-63
2022/01/10 04:20:26;;;;;;;33.65;20.95;;;;;;;;;;143739;677;46022;-63
2022/01/10 04:22:54;;;;;;;19.58;14.57;;;;;;;;;;143740;633;46048;-63
2022/01/10 04:25:21;;;;;;;36.35;21.15;;;;;;;;;;143738;570;46022;-64
2022/01/10 04:27:48;;;;;;;25.40;18.77;;;;;;;;;;143739;637;46018;-63
2022/01/10 04:30:15;;;;;;;24.30;18.00;;;;;;;;;;143739;613;46023;-63
2022/01/10 04:32:43;;;;;;;29.52;20.70;;;;;;;;;;143734;565;46045;-63
2022/01/10 04:35:11;;;;;;;21.35;15.27;;;;;;;;;;143736;655;46023;-63
2022/01/10 04:37:39;;;;;;;28.35;18.23;;;;;;;;;;143738;575;46018;-63
2022/01/10 04:40:07;;;;;;;21.87;14.38;;;;;;;;;;143736;588;46022;-63
2022/01/10 04:42:34;;;;;;;26.25;17.05;;;;;;;;;;143734;564;47020;-64
2022/01/10 04:45:01;;;;;;;23.95;17.37;;;;;;;;;;143738;621;46010;-63
2022/01/10 04:47:28;;;;;;;20.80;16.17;;;;;;;;;;143734;652;46018;-63
2022/01/10 04:52:48;;;;;;;18.65;13.90;;;;;;;;;;143735;591;46020;-64
2022/01/10 04:55:15;;;;;;;21.40;13.57;;;;;;;;;;143736;572;46022;-63
2022/01/10 04:57:43;;;;;;;20.73;14.95;;;;;;;;;;143733;585;46019;-63
2022/01/10 05:00:13;;;;;;;21.10;15.15;;;;;;;;;;143739;590;46022;-63
2022/01/10 05:02:44;;;;;;;16.95;12.18;;;;;;;;;;143740;616;46020;-63
2022/01/10 05:05:11;;;;;;;24.23;16.33;;;;;;;;;;143739;593;46010;-63
2022/01/10 05:07:38;;;;;;;27.48;16.83;;;;;;;;;;143737;564;46042;-63
2022/01/10 05:10:06;;;;;;;22.77;15.20;;;;;;;;;;143740;569;46022;-63
2022/01/10 05:12:33;;;;;;;26.87;19.10;;;;;;;;;;143738;622;46037;-63
2022/01/10 05:15:00;;;;;;;31.85;19.75;;;;;;;;;;143739;589;46010;-63
2022/01/10 05:17:27;;;;;;;32.25;19.35;;;;;;;;;;143736;611;46018;-63
2022/01/10 05:19:54;;;;;;;30.77;18.62;;;;;;;;;;143739;602;46022;-63
2022/01/10 05:22:21;;;;;;;19.58;13.43;;;;;;;;;;143735;646;46021;-63
2022/01/10 05:24:48;;;;;;;20.25;14.35;;;;;;;;;;143736;569;46036;-64
2022/01/10 05:27:15;;;;;;;19.77;14.68;;;;;;;;;;143736;629;46021;-63
2022/01/10 05:29:42;;;;;;;21.50;14.50;;;;;;;;;;143741;569;46020;-63
2022/01/10 05:32:09;;;;;;;16.58;12.25;;;;;;;;;;143735;656;46022;-62
2022/01/10 05:34:36;;;;;;;18.17;14.20;;;;;;;;;;143737;642;46020;-63
2022/01/10 05:37:03;;;;;;;22.45;14.93;;;;;;;;;;143739;578;46020;-63
2022/01/10 05:39:30;;;;;;;23.92;15.77;;;;;;;;;;143739;638;46020;-63
2022/01/10 05:41:57;;;;;;;27.55;18.02;;;;;;;;;;143737;605;46049;-63
2022/01/10 05:44:25;;;;;;;23.33;15.73;;;;;;;;;;143732;569;46020;-63
2022/01/10 05:46:52;;;;;;;22.90;15.90;;;;;;;;;;143735;564;46020;-63
2022/01/10 05:49:25;;;;;;;19.70;15.15;;;;;;;;;;143740;586;46020;-63
2022/01/10 05:51:52;;;;;;;17.12;12.45;;;;;;;;;;143740;649;46023;-64
2022/01/10 05:54:19;;;;;;;31.27;17.05;;;;;;;;;;143735;621;46020;-62
2022/01/10 05:56:46;;;;;;;33.92;19.27;;;;;;;;;;143738;574;46020;-63
2022/01/10 05:59:14;;;;;;;17.00;13.77;;;;;;;;;;143738;575;46021;-63
2022/01/10 06:01:42;;;;;;;23.85;17.58;;;;;;;;;;143739;579;46022;-63
2022/01/10 06:04:10;;;;;;;27.45;19.00;;;;;;;;;;143738;598;46020;-62
2022/01/10 06:06:37;;;;;;;20.85;16.45;;;;;;;;;;143737;659;46021;-63
2022/01/10 06:09:04;;;;;;;31.55;19.30;;;;;;;;;;143739;574;46020;-63
2022/01/10 06:11:31;;;;;;;22.92;16.48;;;;;;;;;;143734;573;46048;-63
2022/01/10 06:13:58;;;;;;;25.55;16.35;;;;;;;;;;143738;564;46020;-63
2022/01/10 06:16:25;;;;;;;21.75;14.50;;;;;;;;;;143736;569;46020;-63
2022/01/10 06:18:55;;;;;;;22.98;15.20;;;;;;;;;;143737;599;46021;-63
2022/01/10 06:21:22;;;;;;;20.77;14.25;;;;;;;;;;143741;649;46023;-63
2022/01/10 06:23:49;;;;;;;27.35;17.25;;;;;;;;;;143738;654;46010;-63
2022/01/10 06:26:16;;;;;;;24.23;16.50;;;;;;;;;;143733;623;46021;-63
2022/01/10 06:28:43;;;;;;;25.00;17.65;;;;;;;;;;143739;589;47020;-64
2022/01/10 06:31:10;;;;;;;29.10;16.48;;;;;;;;;;143739;604;46051;-63
2022/01/10 06:33:37;;;;;;;27.05;16.67;;;;;;;;;;143740;585;46010;-63
2022/01/10 06:36:05;;;;;;;20.85;14.95;;;;;;;;;;143731;570;46027;-62
2022/01/10 06:38:34;;;;;;;25.80;18.25;;;;;;;;;;143740;585;46020;-62
2022/01/10 06:41:04;;;;;;;33.95;21.45;;;;;;;;;;143739;572;46022;-62
2022/01/10 06:43:31;;;;;;;24.40;17.23;;;;;;;;;;143738;582;46020;-62
2022/01/10 06:45:58;;;;;;;25.85;18.58;;;;;;;;;;143736;698;46020;-64
2022/01/10 06:48:25;;;;;;;27.73;18.48;;;;;;;;;;143739;635;46020;-62
2022/01/10 06:50:55;;;;;;;30.02;19.35;;;;;;;;;;143738;625;47023;-64
2022/01/10 06:53:23;;;;;;;29.27;19.42;;;;;;;;;;143738;595;46020;-64
2022/01/10 06:55:50;;;;;;;26.65;18.05;;;;;;;;;;143737;626;46020;-63
2022/01/10 06:58:17;;;;;;;24.87;17.33;;;;;;;;;;143737;585;46020;-63
2022/01/10 07:00:45;;;;;;;27.87;17.90;;;;;;;;;;143732;640;48020;-63
2022/01/10 07:03:12;;;;;;;26.67;19.52;;;;;;;;;;143736;574;46038;-64
2022/01/10 07:05:40;;;;;;;28.83;21.60;;;;;;;;;;143739;583;46019;-63
2022/01/10 07:08:07;;;;;;;31.23;21.27;;;;;;;;;;143739;587;46022;-63
2022/01/10 07:10:34;;;;;;;32.42;23.87;;;;;;;;;;143739;579;47020;-64
2022/01/10 07:13:01;;;;;;;29.20;22.42;;;;;;;;;;143738;569;46022;-63
2022/01/10 07:15:29;;;;;;;55.90;46.28;;;;;;;;;;143739;598;46018;-64
2022/01/10 07:17:56;;;;;;;64.62;57.08;;;;;;;;;;143741;583;46012;-63
2022/01/10 07:20:23;;;;;;;67.43;60.25;;;;;;;;;;143736;587;46021;-63
2022/01/10 07:22:50;;;;;;;57.42;51.15;;;;;;;;;;143736;631;46010;-63
2022/01/10 07:25:17;;;;;;;78.62;70.20;;;;;;;;;;143733;601;46018;-63
2022/01/10 07:27:44;;;;;;;67.93;58.17;;;;;;;;;;143737;575;46023;-64
2022/01/10 07:30:11;;;;;;;39.42;31.00;;;;;;;;;;143733;590;47020;-64
2022/01/10 07:32:38;;;;;;;46.55;40.42;;;;;;;;;;143737;613;46022;-64
2022/01/10 07:35:06;;;;;;;42.13;30.98;;;;;;;;;;143735;566;46018;-64
2022/01/10 07:37:33;;;;;;;41.67;27.67;;;;;;;;;;143739;586;46022;-64
2022/01/10 07:40:00;;;;;;;38.20;31.98;;;;;;;;;;143740;569;46020;-63
2022/01/10 07:42:27;;;;;;;39.28;28.73;;;;;;;;;;143736;565;46918;-64
2022/01/10 07:44:54;;;;;;;21.62;17.00;;;;;;;;;;143735;683;46018;-64
2022/01/10 07:47:21;;;;;;;23.55;17.85;;;;;;;;;;143740;572;46022;-63
2022/01/10 07:49:48;;;;;;;42.05;21.50;;;;;;;;;;143734;564;47018;-64
2022/01/10 07:52:15;;;;;;;22.20;16.75;;;;;;;;;;143736;580;46022;-64
2022/01/10 07:54:44;;;;;;;23.52;18.30;;;;;;;;;;143736;590;46018;-63
2022/01/10 07:57:11;;;;;;;26.80;18.73;;;;;;;;;;143741;583;46023;-64
2022/01/10 07:59:38;;;;;;;23.23;16.15;;;;;;;;;;143738;581;47020;-64
2022/01/10 08:02:05;;;;;;;20.27;14.55;;;;;;;;;;143738;572;46022;-64
2022/01/10 08:04:32;;;;;;;19.35;14.00;;;;;;;;;;143740;569;46016;-64
2022/01/10 08:06:59;;;;;;;23.77;12.37;;;;;;;;;;143737;567;46022;-64
2022/01/10 08:09:26;;;;;;;22.20;11.98;;;;;;;;;;143738;590;47025;-64
2022/01/10 08:11:59;;;;;;;20.12;12.13;;;;;;;;;;143737;565;46023;-64
2022/01/10 08:14:28;;;;;;;22.40;12.40;;;;;;;;;;143735;684;46018;-64
2022/01/10 08:16:55;;;;;;;19.15;12.93;;;;;;;;;;143740;630;46022;-63
2022/01/10 08:19:22;;;;;;;14.40;11.95;;;;;;;;;;143739;585;46021;-64
2022/01/10 08:21:49;;;;;;;24.63;13.00;;;;;;;;;;143736;590;46022;-64
2022/01/10 08:24:17;;;;;;;19.25;13.07;;;;;;;;;;143736;587;46018;-64
2022/01/10 08:26:44;;;;;;;15.68;12.13;;;;;;;;;;143741;569;46023;-63
2022/01/10 08:29:11;;;;;;;24.02;15.05;;;;;;;;;;143741;586;46020;-64
2022/01/10 08:31:38;;;;;;;21.40;15.35;;;;;;;;;;143738;585;46022;-64
2022/01/10 08:34:05;;;;;;;22.95;16.58;;;;;;;;;;143737;614;46019;-64
2022/01/10 08:36:32;;;;;;;19.80;14.18;;;;;;;;;;143738;747;46022;-63
2022/01/10 08:39:00;;;;;;;27.55;18.15;;;;;;;;;;143733;619;47019;-64
2022/01/10 08:41:27;;;;;;;27.40;18.30;;;;;;;;;;143739;641;46011;-63
2022/01/10 08:43:53;;;;;;;31.02;18.00;;;;;;;;;;143737;600;46018;-64
2022/01/10 08:46:23;;;;;;;31.98;18.15;;;;;;;;;;143738;719;46022;-64
2022/01/10 08:48:51;;;;;;;27.48;15.68;;;;;;;;;;143734;616;47021;-64
2022/01/10 08:51:18;;;;;;;20.73;14.70;;;;;;;;;;143738;569;46022;-63
2022/01/10 08:53:45;;;;;;;20.85;14.65;;;;;;;;;;143738;583;46018;-64
2022/01/10 08:56:13;;;;;;;25.70;16.62;;;;;;;;;;143741;584;46023;-63
2022/01/10 08:58:39;;;;;;;26.08;18.10;;;;;;;;;;143740;573;46020;-63
2022/01/10 09:01:07;;;;;;;26.90;15.98;;;;;;;;;;143740;572;46010;-64
2022/01/10 09:03:35;;;;;;;22.83;17.60;;;;;;;;;;143733;578;46019;-63
2022/01/10 09:06:04;;;;;;;18.60;13.05;;;;;;;;;;143738;569;46022;-64
2022/01/10 09:08:38;;;;;;;22.87;15.30;;;;;;;;;;143742;641;46020;-64
2022/01/10 09:11:06;;;;;;;26.37;12.82;;;;;;;;;;143738;687;46023;-63
2022/01/10 09:13:34;;;;;;;22.23;14.77;;;;;;;;;;143735;569;46018;-62
2022/01/10 09:16:04;;;;;;;21.55;13.00;;;;;;;;;;143742;593;46022;-63
2022/01/10 09:18:31;;;;;;;19.50;13.43;;;;;;;;;;143743;675;46021;-62
2022/01/10 09:20:58;;;;;;;15.77;10.70;;;;;;;;;;143737;566;46022;-63
2022/01/10 09:23:26;;;;;;;14.63;10.20;;;;;;;;;;143739;595;46018;-63
2022/01/10 09:25:54;;;;;;;14.77;9.40;;;;;;;;;;143742;608;46023;-63
2022/01/10 09:28:21;;;;;;;13.95;9.32;;;;;;;;;;143734;615;46043;-63
2022/01/10 09:30:49;;;;;;;15.75;11.27;;;;;;;;;;143739;566;47011;-64
2022/01/10 09:33:17;;;;;;;15.27;8.90;;;;;;;;;;143738;641;46019;-64
2022/01/10 09:35:43;;;;;;;16.05;7.43;;;;;;;;;;143739;564;46022;-64
2022/01/10 09:38:11;;;;;;;13.68;7.85;;;;;;;;;;143735;608;50020;-61
2022/01/10 09:40:39;;;;;;;14.32;8.13;;;;;;;;;;143739;576;46023;-63
2022/01/10 09:43:06;;;;;;;14.85;10.70;;;;;;;;;;143742;619;46018;-64
2022/01/10 09:45:34;;;;;;;20.83;15.57;;;;;;;;;;143738;602;46022;-64
2022/01/10 09:48:01;;;;;;;23.73;15.13;;;;;;;;;;143740;591;46021;-65
2022/01/10 09:50:28;;;;;;;16.50;11.57;;;;;;;;;;143740;567;46022;-64
2022/01/10 09:52:55;;;;;;;16.27;11.45;;;;;;;;;;143735;589;46018;-64
2022/01/10 09:55:23;;;;;;;22.67;12.40;;;;;;;;;;143740;587;46023;-65
2022/01/10 09:57:50;;;;;;;15.70;9.65;;;;;;;;;;143740;577;46020;-64
2022/01/10 10:00:20;;;;;;;14.35;8.23;;;;;;;;;;143742;590;46010;-63
2022/01/10 10:02:49;;;;;;;12.70;7.95;;;;;;;;;;143740;565;46019;-65
2022/01/10 10:05:16;;;;;;;11.95;8.73;;;;;;;;;;143743;579;46022;-63
2022/01/10 10:07:43;;;;;;;11.05;8.43;;;;;;;;;;143739;613;46047;-65
2022/01/10 10:10:14;;;;;;;9.90;6.57;;;;;;;;;;143741;611;46013;-65
2022/01/10 10:12:43;;;;;;;8.95;6.30;;;;;;;;;;143741;567;46020;-64
2022/01/10 10:15:12;;;;;;;10.05;6.35;;;;;;;;;;143740;594;46020;-64
2022/01/10 10:17:43;;;;;;;12.27;8.52;;;;;;;;;;143735;584;46022;-65
2022/01/10 10:20:18;;;;;;;15.18;10.95;;;;;;;;;;143741;587;46020;-64
2022/01/10 10:22:46;;;;;;;24.45;17.95;;;;;;;;;;143740;575;46020;-64
2022/01/10 10:25:16;;;;;;;23.75;15.27;;;;;;;;;;143739;593;46021;-64
2022/01/10 10:27:45;;;;;;;13.05;9.55;;;;;;;;;;143741;574;46022;-65
2022/01/10 10:30:19;;;;;;;25.92;17.33;;;;;;;;;;143740;600;46012;-65
2022/01/10 10:32:46;;;;;;;12.82;8.10;;;;;;;;;;143740;624;46020;-63
2022/01/10 10:35:13;;;;;;;14.70;7.95;;;;;;;;;;143742;646;46020;-64
2022/01/10 10:37:44;;;;;;;14.60;7.87;;;;;;;;;;143739;589;47022;-65
2022/01/10 10:40:14;;;;;;;13.98;8.68;;;;;;;;;;143741;636;46021;-63
2022/01/10 10:42:45;;;;;;;11.27;7.28;;;;;;;;;;143732;564;46020;-63
2022/01/10 10:45:14;;;;;;;6.15;4.50;;;;;;;;;;143740;643;46020;-63
2022/01/10 10:47:44;;;;;;;9.80;6.10;;;;;;;;;;143742;592;46023;-62
2022/01/10 10:50:12;;;;;;;11.20;5.07;;;;;;;;;;143741;564;46020;-63
2022/01/10 10:52:41;;;;;;;10.18;6.82;;;;;;;;;;143742;578;46020;-62
2022/01/10 10:55:13;;;;;;;9.82;4.65;;;;;;;;;;143741;803;46021;-63
2022/01/10 10:57:41;;;;;;;13.50;7.53;;;;;;;;;;143739;564;47020;-63
2022/01/10 11:00:15;;;;;;;9.63;6.10;;;;;;;;;;143741;686;46020;-62
2022/01/10 11:02:43;;;;;;;9.10;5.03;;;;;;;;;;143742;570;46021;-62
2022/01/10 11:05:12;;;;;;;10.02;6.12;;;;;;;;;;143734;564;47012;-63
2022/01/10 11:07:42;;;;;;;9.77;7.05;;;;;;;;;;143735;563;46022;-63
2022/01/10 11:10:09;;;;;;;8.02;5.57;;;;;;;;;;143742;566;46013;-62
2022/01/10 11:12:42;;;;;;;9.07;5.45;;;;;;;;;;143740;648;46041;-63
2022/01/10 11:15:13;;;;;;;9.32;5.55;;;;;;;;;;143744;578;46020;-63
2022/01/10 11:17:43;;;;;;;11.02;5.75;;;;;;;;;;143742;826;47023;-63
2022/01/10 11:20:21;;;;;;;7.50;4.72;;;;;;;;;;143740;600;46020;-63
2022/01/10 11:22:55;;;;;;;8.20;4.55;;;;;;;;;;143743;586;46020;-62
2022/01/10 11:25:31;;;;;;;8.60;5.60;;;;;;;;;;143743;602;46021;-63
2022/01/10 11:28:05;;;;;;;9.07;5.80;;;;;;;;;;143741;616;47020;-63
2022/01/10 11:30:37;;;;;;;7.53;5.18;;;;;;;;;;143741;590;46020;-63
2022/01/10 11:33:19;;;;;;;9.60;5.28;;;;;;;;;;143732;578;46037;-62
2022/01/10 11:35:54;;;;;;;8.73;5.00;;;;;;;;;;143741;611;46020;-62
2022/01/10 11:38:49;;;;;;;8.02;4.53;;;;;;;;;;143742;630;47022;-63
2022/01/10 11:41:24;;;;;;;17.62;11.12;;;;;;;;;;143744;589;46020;-61
2022/01/10 11:44:08;;;;;;;24.10;16.92;;;;;;;;;;143739;638;46020;-63
2022/01/10 11:46:46;;;;;;;15.52;11.50;;;;;;;;;;143740;623;46021;-63
2022/01/10 11:49:22;;;;;;;20.52;13.68;;;;;;;;;;143742;570;46023;-64
2022/01/10 11:52:11;;;;;;;16.12;10.38;;;;;;;;;;143738;693;46020;-63
2022/01/10 11:54:42;;;;;;;18.48;12.15;;;;;;;;;;143742;737;46021;-63
2022/01/10 11:57:16;;;;;;;12.30;7.43;;;;;;;;;;143740;587;46020;-64
2022/01/10 11:59:53;;;;;;;15.98;7.75;;;;;;;;;;143735;578;46044;-63
2022/01/10 12:02:25;;;;;;;10.50;7.78;;;;;;;;;;143742;565;46021;-64
2022/01/10 12:04:55;;;;;;;10.60;6.87;;;;;;;;;;143740;581;46020;-63
2022/01/10 12:07:23;;;;;;;10.98;8.57;;;;;;;;;;143740;645;46020;-62
2022/01/10 12:09:51;;;;;;;14.85;5.18;;;;;;;;;;143742;564;47050;-62
2022/01/10 12:12:20;;;;;;;13.30;7.68;;;;;;;;;;143742;696;46010;-64
2022/01/10 12:14:52;;;;;;;13.82;6.72;;;;;;;;;;143742;764;46020;-64
2022/01/10 12:17:20;;;;;;;10.32;7.53;;;;;;;;;;143740;597;46021;-64
2022/01/10 12:19:47;;;;;;;12.60;6.15;;;;;;;;;;143745;582;46022;-65
2022/01/10 12:22:14;;;;;;;9.40;5.35;;;;;;;;;;143741;627;46021;-65
2022/01/10 12:24:43;;;;;;;8.55;5.45;;;;;;;;;;143735;628;46021;-64
2022/01/10 12:27:14;;;;;;;7.72;5.03;;;;;;;;;;143744;580;46020;-64
2022/01/10 12:29:42;;;;;;;9.20;4.90;;;;;;;;;;143744;601;46022;-64
2022/01/10 12:32:11;;;;;;;19.80;12.32;;;;;;;;;;143742;609;46021;-64
2022/01/10 12:34:41;;;;;;;42.22;27.75;;;;;;;;;;143738;604;46020;-65
2022/01/10 12:37:10;;;;;;;43.38;30.08;;;;;;;;;;143742;639;46020;-65
2022/01/10 12:39:38;;;;;;;22.65;14.98;;;;;;;;;;143741;619;46023;-63
2022/01/10 12:42:06;;;;;;;17.10;10.82;;;;;;;;;;143739;569;46020;-64
2022/01/10 12:44:36;;;;;;;24.15;15.93;;;;;;;;;;143740;629;46020;-64
2022/01/10 12:47:03;;;;;;;16.62;11.60;;;;;;;;;;143742;639;46021;-64
2022/01/10 12:49:31;;;;;;;27.45;15.60;;;;;;;;;;143734;598;47020;-64
2022/01/10 12:51:59;;;;;;;12.73;5.07;;;;;;;;;;143738;596;46011;-64
2022/01/10 12:54:28;;;;;;;15.35;9.23;;;;;;;;;;143748;573;46022;-63
2022/01/10 12:56:56;;;;;;;15.23;9.07;;;;;;;;;;143743;584;46020;-64
2022/01/10 12:59:25;;;;;;;14.73;7.87;;;;;;;;;;143742;669;47029;-64
2022/01/10 13:01:54;;;;;;;10.77;6.85;;;;;;;;;;143742;564;46021;-64
2022/01/10 13:04:24;;;;;;;9.60;5.35;;;;;;;;;;143743;598;46020;-63
2022/01/10 13:06:52;;;;;;;10.98;5.65;;;;;;;;;;143742;579;46020;-63
2022/01/10 13:09:21;;;;;;;11.32;7.30;;;;;;;;;;143741;602;46023;-64
2022/01/10 13:12:12;;;;;;;10.10;6.35;;;;;;;;;;143743;599;46020;-64
2022/01/10 13:14:40;;;;;;;11.80;5.80;;;;;;;;;;143722;571;46912;-64
2022/01/10 13:17:08;;;;;;;9.88;5.45;;;;;;;;;;143742;583;46021;-64
2022/01/10 13:19:38;;;;;;;10.88;5.72;;;;;;;;;;143744;612;46022;-64
2022/01/10 13:22:13;;;;;;;11.90;7.35;;;;;;;;;;143743;618;46020;-64
2022/01/10 13:24:53;;;;;;;9.93;5.57;;;;;;;;;;143742;594;46021;-64
2022/01/10 13:27:31;;;;;;;9.60;5.90;;;;;;;;;;143742;566;46020;-64
2022/01/10 13:30:18;;;;;;;10.88;6.43;;;;;;;;;;143742;580;46021;-64
2022/01/10 13:32:46;;;;;;;10.27;6.20;;;;;;;;;;143742;592;46020;-64
2022/01/10 13:35:16;;;;;;;11.00;6.43;;;;;;;;;;143739;569;46020;-63
2022/01/10 13:38:12;;;;;;;11.80;6.78;;;;;;;;;;143740;608;46020;-64
2022/01/10 13:40:50;;;;;;;10.50;6.22;;;;;;;;;;143738;634;46023;-64
2022/01/10 13:43:22;;;;;;;11.60;6.72;;;;;;;;;;143743;609;46010;-64
2022/01/10 13:46:00;;;;;;;8.77;5.80;;;;;;;;;;143739;584;46021;-64
2022/01/10 13:48:53;;;;;;;7.78;4.60;;;;;;;;;;143741;619;46020;-64
2022/01/10 13:51:24;;;;;;;10.00;5.45;;;;;;;;;;143744;565;46024;-64
2022/01/10 13:53:52;;;;;;;11.25;5.25;;;;;;;;;;143741;597;46011;-64
2022/01/10 13:56:33;;;;;;;10.10;5.32;;;;;;;;;;143742;624;46020;-64
2022/01/10 13:59:05;;;;;;;10.85;6.18;;;;;;;;;;143744;579;46020;-65
2022/01/10 14:01:44;;;;;;;9.73;5.32;;;;;;;;;;143743;615;46023;-64
2022/01/10 14:04:32;;;;;;;13.88;7.15;;;;;;;;;;143741;591;46010;-64
2022/01/10 14:07:00;;;;;;;11.60;5.70;;;;;;;;;;143736;591;46020;-65
2022/01/10 14:09:31;;;;;;;11.48;5.57;;;;;;;;;;143742;611;46021;-63
2022/01/10 14:11:58;;;;;;;12.80;6.43;;;;;;;;;;143742;582;47022;-64
2022/01/10 14:14:28;;;;;;;10.13;5.70;;;;;;;;;;143742;601;46010;-65
2022/01/10 14:16:57;;;;;;;11.35;6.12;;;;;;;;;;143742;596;46021;-65
2022/01/10 14:19:24;;;;;;;9.98;5.93;;;;;;;;;;143742;570;46020;-64
2022/01/10 14:21:52;;;;;;;15.30;7.12;;;;;;;;;;143738;585;47022;-64
2022/01/10 14:24:19;;;;;;;10.75;7.10;;;;;;;;;;143741;567;46010;-64
2022/01/10 14:26:48;;;;;;;13.62;7.55;;;;;;;;;;143740;565;46020;-64
2022/01/10 14:29:18;;;;;;;10.98;7.28;;;;;;;;;;143743;589;46020;-64
2022/01/10 14:31:46;;;;;;;12.70;7.15;;;;;;;;;;143735;567;47023;-64
2022/01/10 14:34:13;;;;;;;12.50;7.10;;;;;;;;;;143741;592;46020;-64
2022/01/10 14:36:40;;;;;;;12.85;7.30;;;;;;;;;;143739;599;46020;-65
2022/01/10 14:39:07;;;;;;;16.87;7.65;;;;;;;;;;143744;585;46021;-65
2022/01/10 14:41:37;;;;;;;11.85;7.25;;;;;;;;;;143739;597;47022;-65